Time;durP1;ratioP1;P1;durP2;ratioP2;P2;SDS_P1;SDS_P2;PMS_P1;PMS_P2;Temp;Humidity;BMP_temperature;BMP_pressure;BME280_temperature;BME280_humidity;BME280_pressure;Samples;Min_cycle;Max_cycle;Signal;HPM_P1;HPM_P2
2022/10/08 00:00:16;;;;;;;6.40;3.50;;;;;;;7.64;100.00;93850.72;5133078;27;20039;-71
2022/10/08 00:02:43;;;;;;;7.43;3.20;;;;;;;7.55;100.00;93854.34;5132263;27;20077;-72
2022/10/08 00:05:10;;;;;;;4.78;3.13;;;;;;;7.46;100.00;93848.50;5132717;27;20039;-71
2022/10/08 00:07:38;;;;;;;6.07;3.53;;;;;;;7.39;100.00;93839.91;5132519;27;20057;-71
2022/10/08 00:10:06;;;;;;;4.70;3.42;;;;;;;7.41;100.00;93835.44;5132506;27;20047;-72
2022/10/08 00:12:33;;;;;;;6.45;3.90;;;;;;;7.38;100.00;93831.47;5132802;27;20049;-71
2022/10/08 00:15:01;;;;;;;5.20;3.60;;;;;;;7.31;100.00;93846.69;5132622;27;20039;-71
2022/10/08 00:17:28;;;;;;;4.60;3.42;;;;;;;7.31;100.00;93833.16;5132662;27;20080;-71
2022/10/08 00:19:56;;;;;;;6.78;3.85;;;;;;;7.28;100.00;93841.16;5122509;27;20047;-71
2022/10/08 00:22:23;;;;;;;7.07;3.63;;;;;;;7.25;100.00;93834.63;5128259;27;20139;-72
2022/10/08 00:24:52;;;;;;;6.15;3.70;;;;;;;7.21;100.00;93829.06;5132540;27;20099;-72
2022/10/08 00:27:22;;;;;;;5.60;3.72;;;;;;;7.25;100.00;93831.25;5131963;27;20047;-71
2022/10/08 00:29:49;;;;;;;5.80;3.33;;;;;;;7.20;100.00;93832.59;5132179;27;20051;-71
2022/10/08 00:32:18;;;;;;;7.32;3.53;;;;;;;7.14;100.00;93828.19;5132280;27;20051;-71
2022/10/08 00:34:45;;;;;;;4.93;3.30;;;;;;;7.00;100.00;93821.25;5132045;27;20049;-72
2022/10/08 00:37:14;;;;;;;5.35;3.78;;;;;;;7.01;100.00;93830.50;5132129;27;20085;-71
2022/10/08 00:39:41;;;;;;;7.85;4.25;;;;;;;6.96;100.00;93831.03;5132120;27;20069;-71
2022/10/08 00:42:10;;;;;;;5.45;3.53;;;;;;;6.98;100.00;93825.75;5132104;27;20058;-71
2022/10/08 00:44:57;;;;;;;5.82;3.47;;;;;;;7.01;100.00;93821.09;5132084;27;20088;-72
2022/10/08 00:47:38;;;;;;;7.00;3.65;;;;;;;6.95;100.00;93822.56;5131584;27;20498;-72
2022/10/08 00:50:10;;;;;;;6.45;3.92;;;;;;;6.90;100.00;93826.63;5130813;27;20043;-72
2022/10/08 00:52:42;;;;;;;6.20;3.80;;;;;;;6.83;100.00;93808.63;5131733;27;20103;-72
2022/10/08 00:55:10;;;;;;;6.20;3.60;;;;;;;7.00;100.00;93816.16;5131870;27;20047;-71
2022/10/08 00:57:38;;;;;;;6.65;4.15;;;;;;;6.97;100.00;93817.28;5132047;27;20099;-71
2022/10/08 01:00:08;;;;;;;6.68;4.80;;;;;;;6.96;100.00;93813.16;5131577;27;20043;-72
2022/10/08 01:02:36;;;;;;;7.57;5.00;;;;;;;7.00;100.00;93816.16;5131883;27;20051;-72
2022/10/08 01:05:04;;;;;;;6.63;4.15;;;;;;;7.04;100.00;93813.06;5131518;27;20039;-71
2022/10/08 01:07:36;;;;;;;7.82;4.55;;;;;;;7.01;100.00;93815.19;5131449;27;20639;-70
2022/10/08 01:10:10;;;;;;;8.05;4.60;;;;;;;6.98;100.00;93808.66;5131205;27;20043;-72
2022/10/08 01:12:46;;;;;;;6.80;5.07;;;;;;;7.00;100.00;93799.09;5131298;27;20047;-72
2022/10/08 01:15:22;;;;;;;9.25;4.85;;;;;;;7.02;100.00;93801.44;5131138;27;20495;-72
2022/10/08 01:18:00;;;;;;;7.13;4.88;;;;;;;6.95;100.00;93794.47;5131185;27;20495;-72
2022/10/08 01:20:44;;;;;;;6.88;4.53;;;;;;;6.94;100.00;93787.78;5116897;27;20108;-71
2022/10/08 01:23:49;;;;;;;7.15;5.13;;;;;;;6.81;100.00;93785.81;5119722;27;20453;-72
2022/10/08 01:26:37;;;;;;;7.65;5.55;;;;;;;6.79;100.00;93790.28;5116759;27;20043;-71
2022/10/08 01:29:13;;;;;;;6.18;4.03;;;;;;;6.72;100.00;93783.50;5130983;27;20047;-71
2022/10/08 01:31:42;;;;;;;;;;;;;;;6.74;100.00;93784.91;5131624;27;20440;-72
2022/10/08 01:34:13;;;;;;;7.38;4.75;;;;;;;6.71;100.00;93780.13;5131120;27;20031;-72
2022/10/08 01:36:44;;;;;;;7.10;4.90;;;;;;;6.49;100.00;93743.44;5131204;27;20039;-72
2022/10/08 01:39:16;;;;;;;6.78;4.20;;;;;;;6.70;100.00;93777.78;5131190;27;20095;-71
2022/10/08 01:41:47;;;;;;;6.65;4.07;;;;;;;6.63;100.00;93764.88;5130628;27;20050;-71
2022/10/08 01:44:19;;;;;;;5.50;3.70;;;;;;;6.57;100.00;93771.47;5130804;27;20047;-71
2022/10/08 01:46:49;;;;;;;7.68;5.13;;;;;;;6.44;100.00;93777.16;5130786;27;20047;-70
2022/10/08 01:49:20;;;;;;;9.27;5.38;;;;;;;6.24;100.00;93772.47;5130893;27;20047;-70
2022/10/08 01:51:51;;;;;;;8.57;5.75;;;;;;;6.24;100.00;93775.03;5102444;27;20467;-71
2022/10/08 01:54:20;;;;;;;7.93;5.40;;;;;;;6.26;100.00;93773.09;5130732;27;20039;-71
2022/10/08 01:56:48;;;;;;;8.95;5.82;;;;;;;6.28;100.00;93776.28;5130328;27;20043;-71
2022/10/08 01:59:21;;;;;;;8.90;6.55;;;;;;;6.29;100.00;93774.50;5130278;27;20091;-71
2022/10/08 02:01:56;;;;;;;8.82;5.50;;;;;;;6.28;100.00;93770.38;5130408;27;20112;-71
2022/10/08 02:04:34;;;;;;;6.50;4.70;;;;;;;6.28;100.00;93767.81;5130502;27;20043;-71
2022/10/08 02:07:04;;;;;;;7.43;4.80;;;;;;;6.26;100.00;93765.44;5130189;27;20478;-71
2022/10/08 02:09:34;;;;;;;7.97;4.75;;;;;;;6.26;100.00;93768.00;5130619;27;20050;-71
2022/10/08 02:12:01;;;;;;;8.43;4.28;;;;;;;6.33;100.00;93770.66;5130398;27;20115;-72
2022/10/08 02:14:31;;;;;;;7.55;4.63;;;;;;;6.35;100.00;93775.59;5130443;27;20035;-72
2022/10/08 02:17:05;;;;;;;8.00;5.18;;;;;;;6.36;100.00;93775.44;5130411;27;20107;-72
2022/10/08 02:19:39;;;;;;;6.05;4.22;;;;;;;6.26;100.00;93759.56;5123356;27;20092;-71
2022/10/08 02:22:07;;;;;;;6.97;3.80;;;;;;;6.37;100.00;93779.56;5124138;27;20051;-71
2022/10/08 02:24:40;;;;;;;6.32;4.10;;;;;;;6.31;100.00;93779.44;5130169;27;20046;-71
2022/10/08 02:27:09;;;;;;;5.72;3.67;;;;;;;6.23;100.00;93767.53;5130530;27;20082;-71
2022/10/08 02:29:42;;;;;;;8.40;4.47;;;;;;;6.25;100.00;93768.19;5115531;27;20443;-71
2022/10/08 02:32:14;;;;;;;7.63;4.35;;;;;;;6.26;100.00;93770.53;5130303;27;20052;-71
2022/10/08 02:34:47;;;;;;;9.82;4.63;;;;;;;6.15;100.00;93766.63;5130196;28;20337;-71
2022/10/08 02:37:18;;;;;;;7.25;4.13;;;;;;;6.16;100.00;93762.34;5130116;28;20112;-71
2022/10/08 02:39:52;;;;;;;6.63;3.85;;;;;;;6.15;100.00;93760.72;5115530;28;20547;-71
2022/10/08 02:42:22;;;;;;;6.47;3.92;;;;;;;6.10;100.00;93753.59;5130057;28;20104;-72
2022/10/08 02:44:56;;;;;;;6.47;3.40;;;;;;;6.11;100.00;93755.16;5129805;28;20035;-71
2022/10/08 02:47:27;;;;;;;5.88;3.83;;;;;;;6.13;100.00;93745.59;5129933;28;20421;-71
2022/10/08 02:49:59;;;;;;;5.18;3.35;;;;;;;6.15;100.00;93758.97;5130029;28;20035;-71
2022/10/08 02:52:30;;;;;;;6.07;3.63;;;;;;;6.19;100.00;93763.72;5129449;28;20100;-71
2022/10/08 02:55:01;;;;;;;6.50;3.90;;;;;;;6.13;100.00;93755.81;5129681;28;20084;-71
2022/10/08 02:57:34;;;;;;;6.93;5.20;;;;;;;5.98;100.00;93745.47;5130014;28;20047;-71
2022/10/08 03:00:02;;;;;;;7.60;5.05;;;;;;;5.99;100.00;93753.94;5129897;28;20084;-72
2022/10/08 03:02:35;;;;;;;7.13;5.00;;;;;;;6.02;100.00;93756.16;5129559;28;20540;-72
2022/10/08 03:05:05;;;;;;;7.38;4.50;;;;;;;6.03;100.00;93751.88;5129399;28;20042;-72
2022/10/08 03:07:34;;;;;;;5.18;3.67;;;;;;;5.91;100.00;93733.56;5129932;28;20116;-72
2022/10/08 03:10:05;;;;;;;6.80;4.55;;;;;;;6.05;100.00;93755.03;5129530;28;20076;-72
2022/10/08 03:12:33;;;;;;;7.55;4.50;;;;;;;6.01;100.00;93742.59;5129590;28;20051;-72
2022/10/08 03:15:01;;;;;;;5.95;4.40;;;;;;;6.03;100.00;93744.22;5132563;27;20158;-72
2022/10/08 03:17:35;;;;;;;6.28;4.00;;;;;;;6.04;100.00;93744.06;5133876;27;20042;-72
2022/10/08 03:20:03;;;;;;;6.25;4.30;;;;;;;6.02;100.00;93740.88;5122858;27;20431;-72
2022/10/08 03:22:30;;;;;;;5.28;4.68;;;;;;;5.99;100.00;93748.84;5130750;27;20051;-71
2022/10/08 03:24:57;;;;;;;5.90;4.68;;;;;;;5.88;100.00;93752.56;5133408;27;20095;-72
2022/10/08 03:27:24;;;;;;;7.30;4.38;;;;;;;5.84;100.00;93748.75;5133370;27;20469;-71
2022/10/08 03:29:55;;;;;;;7.30;4.55;;;;;;;5.82;100.00;93743.00;5133677;27;20051;-71
2022/10/08 03:32:24;;;;;;;5.78;4.47;;;;;;;5.67;100.00;93732.72;5133458;27;20133;-71
2022/10/08 03:34:50;;;;;;;5.93;3.97;;;;;;;5.75;100.00;93750.53;5133485;27;20046;-71
2022/10/08 03:37:17;;;;;;;5.00;3.58;;;;;;;5.77;100.00;93752.91;5133346;27;20043;-72
2022/10/08 03:39:44;;;;;;;4.93;3.33;;;;;;;5.65;100.00;93739.75;5133105;27;20043;-72
2022/10/08 03:42:10;;;;;;;6.30;3.58;;;;;;;5.69;100.00;93746.13;5133104;27;20089;-71
2022/10/08 03:44:37;;;;;;;4.53;3.30;;;;;;;5.63;100.00;93750.09;5133273;27;20035;-71
2022/10/08 03:47:04;;;;;;;5.28;3.00;;;;;;;5.62;100.00;93746.75;5132796;27;20555;-71
2022/10/08 03:49:32;;;;;;;6.35;3.33;;;;;;;5.61;100.00;93755.38;5133098;27;20040;-71
2022/10/08 03:51:59;;;;;;;5.65;3.30;;;;;;;5.68;100.00;93754.69;5124866;27;20494;-71
2022/10/08 03:54:25;;;;;;;4.57;3.17;;;;;;;5.69;100.00;93757.09;5126663;27;20099;-72
2022/10/08 03:56:52;;;;;;;5.53;3.55;;;;;;;5.70;100.00;93748.47;5132850;27;20047;-72
2022/10/08 03:59:19;;;;;;;6.60;3.45;;;;;;;5.70;100.00;93756.13;5133010;27;20112;-71
2022/10/08 04:01:46;;;;;;;4.80;3.28;;;;;;;5.58;100.00;93748.06;5132857;27;20456;-72
2022/10/08 04:04:12;;;;;;;4.35;3.22;;;;;;;5.54;100.00;93746.78;5133002;27;20047;-72
2022/10/08 04:06:40;;;;;;;7.13;4.15;;;;;;;5.48;100.00;93745.69;5133060;27;20039;-72
2022/10/08 04:09:09;;;;;;;6.72;5.05;;;;;;;5.38;100.00;93742.56;5132868;27;20440;-72
2022/10/08 04:11:35;;;;;;;7.85;5.38;;;;;;;5.34;100.00;93741.28;5132551;27;20043;-72
2022/10/08 04:14:02;;;;;;;9.93;5.22;;;;;;;5.33;100.00;93743.03;5132374;27;20039;-72
2022/10/08 04:16:29;;;;;;;14.13;8.35;;;;;;;5.31;100.00;93750.06;5132713;27;20116;-72
2022/10/08 04:18:55;;;;;;;17.45;9.63;;;;;;;5.25;100.00;93748.16;5130674;27;20487;-72
2022/10/08 04:21:22;;;;;;;20.13;9.75;;;;;;;5.24;100.00;93744.03;5119908;27;20047;-72
2022/10/08 04:23:50;;;;;;;25.38;12.30;;;;;;;5.11;100.00;93741.19;5132311;27;20047;-72
2022/10/08 04:26:17;;;;;;;25.75;12.82;;;;;;;5.12;100.00;93740.22;5131339;27;20036;-72
2022/10/08 04:28:44;;;;;;;24.08;12.63;;;;;;;5.14;100.00;93738.31;5132272;27;20043;-72
2022/10/08 04:31:15;;;;;;;27.67;13.55;;;;;;;5.19;100.00;93736.88;5132315;27;20043;-72
2022/10/08 04:33:42;;;;;;;33.65;15.38;;;;;;;5.22;100.00;93741.66;5132181;27;20453;-72
2022/10/08 04:36:10;;;;;;;30.05;16.05;;;;;;;5.26;100.00;93748.94;5132215;27;20043;-72
2022/10/08 04:38:37;;;;;;;25.55;15.00;;;;;;;5.16;100.00;93729.56;5132203;27;20043;-72
2022/10/08 04:41:07;;;;;;;26.13;13.98;;;;;;;5.18;100.00;93730.19;5131685;27;20594;-72
2022/10/08 04:43:35;;;;;;;25.30;13.30;;;;;;;5.33;100.00;93742.25;5131738;27;20503;-72
2022/10/08 04:46:02;;;;;;;23.77;12.38;;;;;;;5.34;100.00;93742.06;5131917;27;20108;-71
2022/10/08 04:48:29;;;;;;;18.30;11.27;;;;;;;5.32;100.00;93736.34;5132074;27;20047;-72
2022/10/08 04:50:57;;;;;;;19.85;10.80;;;;;;;5.30;100.00;93737.47;5131984;27;20092;-72
2022/10/08 04:53:25;;;;;;;14.75;9.75;;;;;;;5.38;100.00;93737.47;5131543;27;20096;-72
2022/10/08 04:55:52;;;;;;;14.98;10.40;;;;;;;5.38;100.00;93740.00;5131676;27;20055;-72
2022/10/08 04:58:21;;;;;;;18.08;9.23;;;;;;;5.39;100.00;93733.97;5131540;27;20494;-72
2022/10/08 05:00:48;;;;;;;13.82;7.80;;;;;;;5.40;100.00;93740.63;5131427;27;20487;-72
2022/10/08 05:03:17;;;;;;;10.65;5.97;;;;;;;5.33;100.00;93744.81;5131143;27;20059;-72
2022/10/08 05:05:45;;;;;;;10.50;5.38;;;;;;;5.33;100.00;93749.91;5131513;27;20043;-72
2022/10/08 05:08:12;;;;;;;7.13;4.70;;;;;;;5.32;100.00;93751.63;5131560;27;20047;-72
2022/10/08 05:10:39;;;;;;;6.95;4.45;;;;;;;5.32;100.00;93754.19;5131365;27;20557;-72
2022/10/08 05:13:06;;;;;;;6.57;4.20;;;;;;;5.28;100.00;93749.59;5131253;27;20100;-72
2022/10/08 05:15:35;;;;;;;10.07;7.18;;;;;;;5.12;100.00;93735.94;5131108;27;20100;-71
2022/10/08 05:18:02;;;;;;;6.53;4.85;;;;;;;5.20;100.00;93747.84;5118862;27;20043;-71
2022/10/08 05:20:29;;;;;;;9.98;7.25;;;;;;;5.13;100.00;93736.75;5114859;27;20051;-71
2022/10/08 05:22:55;;;;;;;11.80;6.72;;;;;;;5.29;100.00;93754.53;5131341;27;20445;-71
2022/10/08 05:25:22;;;;;;;12.45;8.18;;;;;;;5.29;100.00;93753.72;5131158;27;20043;-71
2022/10/08 05:27:49;;;;;;;27.00;18.45;;;;;;;5.21;100.00;93755.34;5131145;27;20438;-71
2022/10/08 05:30:16;;;;;;;19.33;13.45;;;;;;;5.21;100.00;93752.78;5131245;27;20047;-71
2022/10/08 05:32:44;;;;;;;18.77;12.20;;;;;;;5.29;100.00;93754.53;5130601;27;20491;-71
2022/10/08 05:35:11;;;;;;;15.95;10.55;;;;;;;5.34;100.00;93757.34;5130778;27;20095;-72
2022/10/08 05:37:37;;;;;;;19.42;12.77;;;;;;;5.47;100.00;93759.38;5130638;27;20051;-72
2022/10/08 05:40:05;;;;;;;17.73;11.05;;;;;;;5.58;100.00;93760.81;5130556;27;20043;-72
2022/10/08 05:42:31;;;;;;;13.45;9.85;;;;;;;5.72;100.00;93755.97;5130746;27;20051;-72
2022/10/08 05:44:58;;;;;;;15.43;10.38;;;;;;;5.85;100.00;93763.88;5102533;27;20111;-72
2022/10/08 05:47:25;;;;;;;40.35;21.90;;;;;;;6.02;100.00;93768.91;5130837;27;20044;-72
2022/10/08 05:49:53;;;;;;;174.50;76.15;;;;;;;6.13;100.00;93762.66;5130757;27;20051;-72
2022/10/08 05:52:20;;;;;;;201.70;84.43;;;;;;;6.23;100.00;93757.34;5119508;27;20051;-72
2022/10/08 05:54:47;;;;;;;121.68;51.75;;;;;;;6.39;100.00;93759.00;5127386;27;20096;-71
2022/10/08 05:57:13;;;;;;;67.57;31.73;;;;;;;6.59;100.00;93756.78;5097990;27;20105;-71
2022/10/08 05:59:40;;;;;;;61.60;30.17;;;;;;;6.71;100.00;93756.38;5128757;27;20047;-72
2022/10/08 06:02:07;;;;;;;262.88;116.75;;;;;;;6.89;100.00;93759.41;5130031;27;20560;-71
2022/10/08 06:04:33;;;;;;;401.15;206.38;;;;;;;6.81;100.00;93721.97;5130471;27;20080;-72
2022/10/08 06:07:02;;;;;;;85.93;42.38;;;;;;;7.08;100.00;93747.09;5130162;27;20558;-72
2022/10/08 06:09:28;;;;;;;86.78;41.70;;;;;;;7.24;100.00;93758.94;5129920;27;20554;-72
2022/10/08 06:11:55;;;;;;;76.15;37.13;;;;;;;7.31;100.00;93759.81;5130024;27;20088;-72
2022/10/08 06:14:23;;;;;;;78.35;37.92;;;;;;;7.44;100.00;93755.84;5129991;27;20046;-72
2022/10/08 06:16:50;;;;;;;81.18;41.63;;;;;;;7.60;100.00;93752.34;5130231;27;20043;-72
2022/10/08 06:19:17;;;;;;;91.88;47.95;;;;;;;7.71;100.00;93756.19;5125574;27;20089;-72
2022/10/08 06:21:43;;;;;;;77.45;40.13;;;;;;;7.88;100.00;93761.91;5120392;27;20042;-72
2022/10/08 06:24:12;;;;;;;63.05;33.45;;;;;;;8.02;100.00;93755.97;5130088;27;20563;-72
2022/10/08 06:26:41;;;;;;;20.42;12.75;;;;;;;8.01;100.00;93745.94;5129888;27;20054;-72
2022/10/08 06:29:14;;;;;;;12.18;7.20;;;;;;;8.10;100.00;93756.84;5129943;27;20051;-72
2022/10/08 06:31:41;;;;;;;11.57;7.68;;;;;;;8.25;100.00;93741.44;5130079;27;20047;-72
2022/10/08 06:34:08;;;;;;;12.85;6.63;;;;;;;8.32;100.00;93744.84;5129960;27;20813;-72
2022/10/08 06:36:36;;;;;;;22.20;11.20;;;;;;;8.40;100.00;93741.38;5129796;28;20503;-72
2022/10/08 06:39:06;;;;;;;9.68;5.93;;;;;;;8.59;100.00;93741.78;5129668;28;20092;-72
2022/10/08 06:41:34;;;;;;;9.82;6.65;;;;;;;8.74;100.00;93741.72;5129880;28;20345;-72
2022/10/08 06:44:01;;;;;;;9.15;6.10;;;;;;;8.67;100.00;93716.81;5129661;28;20053;-72
2022/10/08 06:46:30;;;;;;;10.70;6.57;;;;;;;9.06;100.00;93739.56;5129803;28;20039;-72
2022/10/08 06:48:57;;;;;;;15.23;9.95;;;;;;;9.16;100.00;93734.91;5131188;27;20078;-72
2022/10/08 06:51:24;;;;;;;16.60;10.07;;;;;;;9.27;100.00;93738.75;5133684;27;20035;-72
2022/10/08 06:53:53;;;;;;;20.48;11.70;;;;;;;9.54;100.00;93754.25;5133927;27;20564;-72
2022/10/08 06:56:20;;;;;;;23.83;12.65;;;;;;;9.70;100.00;93748.03;5134103;27;20043;-72
2022/10/08 06:58:48;;;;;;;26.77;13.02;;;;;;;9.79;100.00;93753.78;5134134;27;20092;-72
2022/10/08 07:01:17;;;;;;;27.48;12.57;;;;;;;10.00;100.00;93747.75;5130141;27;20065;-72
2022/10/08 07:03:48;;;;;;;19.23;11.32;;;;;;;9.99;100.00;93737.66;5123221;27;20096;-72
2022/10/08 07:06:15;;;;;;;27.95;11.90;;;;;;;10.10;100.00;93752.50;5133747;27;20092;-71
2022/10/08 07:08:41;;;;;;;25.83;13.32;;;;;;;10.29;100.00;93739.94;5133549;27;20047;-71
2022/10/08 07:11:10;;;;;;;21.13;11.90;;;;;;;10.34;100.00;93747.06;5133738;27;20043;-71
2022/10/08 07:13:38;;;;;;;28.88;12.25;;;;;;;10.52;100.00;93744.72;5133693;27;20445;-72
2022/10/08 07:16:08;;;;;;;24.35;12.07;;;;;;;10.78;100.00;93756.03;5133507;27;20047;-72
2022/10/08 07:18:37;;;;;;;25.13;11.35;;;;;;;11.00;100.00;93760.97;5133548;27;20047;-72
2022/10/08 07:21:04;;;;;;;28.25;13.02;;;;;;;11.19;100.00;93750.88;5118804;27;20043;-71
2022/10/08 07:23:31;;;;;;;30.25;13.45;;;;;;;11.27;100.00;93758.41;5133328;27;20460;-72
2022/10/08 07:25:59;;;;;;;28.08;12.95;;;;;;;11.45;100.00;93747.50;5133428;27;20043;-71
2022/10/08 07:28:28;;;;;;;24.73;12.18;;;;;;;11.45;100.00;93742.34;5133325;27;20602;-71
2022/10/08 07:31:02;;;;;;;31.67;14.00;;;;;;;11.48;100.00;93746.28;5133252;27;20116;-72
2022/10/08 07:33:33;;;;;;;28.42;14.13;;;;;;;11.56;100.00;93740.91;5133458;27;20043;-72
2022/10/08 07:36:07;;;;;;;27.50;11.80;;;;;;;11.78;100.00;93740.66;5133023;27;20154;-72
2022/10/08 07:38:34;;;;;;;28.13;11.23;;;;;;;12.06;100.00;93734.44;5132695;27;20092;-71
2022/10/08 07:41:00;;;;;;;25.40;11.50;;;;;;;12.04;100.00;93744.16;5133170;27;20084;-71
2022/10/08 07:43:27;;;;;;;27.38;12.02;;;;;;;12.24;100.00;93733.75;5132919;27;20088;-71
2022/10/08 07:45:54;;;;;;;26.50;11.57;;;;;;;12.31;100.00;93741.44;5133242;27;20043;-71
2022/10/08 07:48:21;;;;;;;25.95;11.93;;;;;;;12.48;100.00;93741.72;5133153;27;20088;-71
2022/10/08 07:50:49;;;;;;;27.65;11.60;;;;;;;12.59;98.83;93744.66;5132898;27;20051;-71
2022/10/08 07:53:16;;;;;;;21.13;10.32;;;;;;;12.81;98.64;93747.66;5132963;27;20075;-71
2022/10/08 07:55:43;;;;;;;24.83;10.70;;;;;;;13.14;97.54;93740.66;5132958;27;20396;-71
2022/10/08 07:58:10;;;;;;;26.70;11.75;;;;;;;13.40;97.08;93742.19;5133005;27;20096;-71
2022/10/08 08:00:38;;;;;;;28.38;10.88;;;;;;;13.63;94.86;93745.97;5132953;27;20051;-72
2022/10/08 08:03:05;;;;;;;22.77;11.10;;;;;;;13.87;90.02;93746.91;5132124;27;20444;-72
2022/10/08 08:05:33;;;;;;;27.02;12.63;;;;;;;13.95;90.11;93734.69;5132924;27;20084;-72
2022/10/08 08:08:01;;;;;;;21.15;9.73;;;;;;;13.92;87.48;93740.31;5132887;27;20051;-71
2022/10/08 08:10:28;;;;;;;19.33;9.80;;;;;;;14.16;88.77;93736.81;5133088;27;20054;-71
2022/10/08 08:12:55;;;;;;;17.23;9.00;;;;;;;14.47;90.58;93733.41;5132670;27;20116;-71
2022/10/08 08:15:22;;;;;;;20.00;8.98;;;;;;;14.68;88.08;93739.91;5132183;27;20046;-71
2022/10/08 08:17:48;;;;;;;20.67;9.25;;;;;;;14.96;90.30;93725.56;5132655;27;20051;-71
2022/10/08 08:20:15;;;;;;;17.40;8.13;;;;;;;15.19;82.76;93732.53;5119705;27;20113;-71
2022/10/08 08:22:42;;;;;;;15.05;7.65;;;;;;;15.54;82.88;93727.56;5112553;27;20856;-71
2022/10/08 08:25:10;;;;;;;14.70;8.18;;;;;;;15.59;78.57;93740.63;5129916;27;20077;-71
2022/10/08 08:27:37;;;;;;;14.45;7.30;;;;;;;15.73;78.21;93734.19;5132357;27;20096;-71
2022/10/08 08:30:05;;;;;;;10.57;5.60;;;;;;;15.75;73.65;93741.72;5131715;27;20084;-71
2022/10/08 08:32:31;;;;;;;6.45;3.67;;;;;;;15.43;71.32;93739.53;5132218;27;20047;-71
2022/10/08 08:34:58;;;;;;;5.63;3.20;;;;;;;15.70;71.73;93745.00;5132008;27;20043;-71
2022/10/08 08:37:25;;;;;;;7.10;3.42;;;;;;;15.87;69.74;93741.69;5132045;27;20043;-72
2022/10/08 08:39:52;;;;;;;8.15;3.42;;;;;;;16.13;72.81;93730.06;5132070;27;20097;-71
2022/10/08 08:42:35;;;;;;;8.10;3.75;;;;;;;16.12;66.60;93738.06;5131803;27;20039;-72
2022/10/08 08:45:10;;;;;;;4.25;2.45;;;;;;;16.13;68.92;93734.44;5131741;27;20055;-71
2022/10/08 08:47:41;;;;;;;4.32;2.65;;;;;;;16.28;65.90;93739.91;5131759;27;20555;-71
2022/10/08 08:50:19;;;;;;;6.50;3.00;;;;;;;16.32;65.76;93734.25;5131927;27;20555;-71
2022/10/08 08:52:45;;;;;;;5.60;2.80;;;;;;;16.44;65.57;93701.28;5131599;27;20452;-71
2022/10/08 08:55:14;;;;;;;4.68;2.60;;;;;;;16.85;69.14;93719.31;5131802;27;20051;-71
2022/10/08 08:57:50;;;;;;;4.93;2.72;;;;;;;17.16;67.12;93719.81;5123539;27;20588;-71
2022/10/08 09:00:20;;;;;;;4.28;2.55;;;;;;;17.45;61.53;93724.09;5126491;27;20047;-71
2022/10/08 09:02:55;;;;;;;5.47;3.22;;;;;;;17.52;64.04;93718.72;5131353;27;20100;-71
2022/10/08 09:05:25;;;;;;;5.05;2.90;;;;;;;17.72;65.03;93718.97;5131069;27;20501;-71
2022/10/08 09:07:56;;;;;;;6.90;3.10;;;;;;;17.93;62.24;93713.22;5131654;27;20047;-71
2022/10/08 09:10:35;;;;;;;8.27;3.13;;;;;;;18.07;62.54;93722.25;5131092;27;20499;-71
2022/10/08 09:13:03;;;;;;;11.43;3.28;;;;;;;18.28;64.99;93712.84;5130410;27;20495;-72
2022/10/08 09:15:34;;;;;;;5.82;2.40;;;;;;;18.42;56.87;93717.66;5131436;27;20117;-71
2022/10/08 09:18:03;;;;;;;6.70;3.58;;;;;;;18.52;58.75;93702.13;5131413;27;20095;-71
2022/10/08 09:20:30;;;;;;;9.25;4.22;;;;;;;18.38;59.20;93698.38;5116903;27;20092;-71
2022/10/08 09:22:57;;;;;;;9.68;3.25;;;;;;;18.03;61.10;93702.94;5131317;27;20384;-71
2022/10/08 09:25:27;;;;;;;8.55;3.92;;;;;;;18.20;65.85;93679.50;5131072;27;20111;-71
2022/10/08 09:27:56;;;;;;;7.85;3.95;;;;;;;18.45;61.06;93682.56;5131266;27;21153;-72
2022/10/08 09:30:34;;;;;;;10.10;3.50;;;;;;;18.78;65.27;93684.13;5130767;27;20051;-71
2022/10/08 09:33:04;;;;;;;7.32;2.80;;;;;;;18.70;56.17;93685.38;5130665;27;20096;-71
2022/10/08 09:35:33;;;;;;;6.32;2.85;;;;;;;18.92;60.19;93678.50;5131021;27;20109;-71
2022/10/08 09:38:01;;;;;;;6.85;3.10;;;;;;;18.93;57.31;93680.84;5130827;27;20051;-72
2022/10/08 09:40:28;;;;;;;4.53;2.58;;;;;;;19.19;59.80;93673.25;5130971;27;20054;-71
2022/10/08 09:43:11;;;;;;;5.95;3.03;;;;;;;19.31;61.89;93652.19;5130475;27;20096;-71
2022/10/08 09:45:44;;;;;;;6.50;3.10;;;;;;;19.56;58.78;93665.59;5128614;27;20046;-71
2022/10/08 09:48:23;;;;;;;7.93;3.13;;;;;;;19.62;58.30;93654.94;5130761;27;20047;-71
2022/10/08 09:50:57;;;;;;;10.23;3.67;;;;;;;19.74;61.67;93659.94;5130335;27;20043;-71
2022/10/08 09:53:27;;;;;;;9.57;3.75;;;;;;;19.77;59.57;93651.59;5129965;27;20057;-71
2022/10/08 09:55:57;;;;;;;8.18;3.78;;;;;;;19.84;57.03;93651.38;5117333;27;20044;-71
2022/10/08 09:58:24;;;;;;;9.82;3.92;;;;;;;20.03;61.41;93645.69;5103664;27;20044;-71
2022/10/08 10:01:02;;;;;;;9.43;4.03;;;;;;;20.16;58.65;93640.00;5130620;27;20092;-71
2022/10/08 10:03:30;;;;;;;6.72;3.55;;;;;;;20.02;59.58;93636.31;5116706;27;20096;-72
2022/10/08 10:05:59;;;;;;;7.55;3.50;;;;;;;19.97;58.00;93623.25;5130544;27;20050;-72
2022/10/08 10:08:53;;;;;;;6.90;3.33;;;;;;;20.13;57.11;93637.09;5130213;27;20130;-71
2022/10/08 10:11:26;;;;;;;9.60;4.20;;;;;;;20.46;58.64;93632.44;5130396;27;20092;-71
2022/10/08 10:13:54;;;;;;;9.95;3.42;;;;;;;20.37;56.96;93628.78;5128347;27;20121;-71
2022/10/08 10:16:28;;;;;;;9.77;3.20;;;;;;;20.52;57.48;93622.78;5121287;27;20051;-72
2022/10/08 10:18:58;;;;;;;6.65;3.58;;;;;;;20.61;56.14;93618.63;5128849;27;20461;-72
2022/10/08 10:21:35;;;;;;;11.05;3.20;;;;;;;20.51;53.42;93613.41;5118053;27;20041;-72
2022/10/08 10:24:27;;;;;;;13.25;3.83;;;;;;;20.54;57.53;93582.34;5107774;27;20055;-71
2022/10/08 10:27:00;;;;;;;5.97;3.33;;;;;;;20.78;54.65;93601.88;5090549;28;20048;-72
2022/10/08 10:29:41;;;;;;;8.05;3.20;;;;;;;20.92;56.96;93595.09;5095515;28;20113;-72
2022/10/08 10:32:14;;;;;;;8.63;3.40;;;;;;;21.21;57.43;93594.47;5089368;28;20521;-72
2022/10/08 10:34:52;;;;;;;9.45;4.40;;;;;;;21.43;54.06;93593.34;5090070;28;20048;-72
2022/10/08 10:37:26;;;;;;;9.02;4.00;;;;;;;21.17;53.65;93596.06;5088884;28;20442;-72
2022/10/08 10:40:00;;;;;;;12.30;3.72;;;;;;;21.26;57.28;93574.63;5089792;28;20048;-72
2022/10/08 10:42:35;;;;;;;13.73;3.67;;;;;;;21.33;51.63;93590.78;5098086;28;20039;-72
2022/10/08 10:45:17;;;;;;;9.23;3.87;;;;;;;21.28;54.31;93575.91;5109341;28;20903;-72
2022/10/08 10:47:56;;;;;;;5.45;2.60;;;;;;;20.83;51.86;93581.75;5109691;28;20051;-72
2022/10/08 10:50:29;;;;;;;7.40;4.15;;;;;;;20.69;52.44;93554.66;5099937;28;20410;-72
2022/10/08 10:53:05;;;;;;;7.47;3.00;;;;;;;20.62;59.17;93561.97;5099559;28;20079;-72
2022/10/08 10:55:35;;;;;;;;;;;;;;;20.96;55.92;93562.19;5121686;28;20055;-72
2022/10/08 10:58:22;;;;;;;8.75;3.53;;;;;;;20.56;54.41;93561.97;5095382;28;19926;-72
2022/10/08 11:00:57;;;;;;;10.65;3.30;;;;;;;20.33;55.57;93552.88;5105062;28;20052;-72
2022/10/08 11:03:36;;;;;;;14.65;3.72;;;;;;;20.76;57.31;93551.75;5088585;28;20389;-72
2022/10/08 11:06:21;;;;;;;6.20;3.22;;;;;;;21.13;57.67;93544.63;5125411;28;20506;-72
2022/10/08 11:08:59;;;;;;;6.50;3.60;;;;;;;21.31;56.11;93536.19;5130013;28;20040;-72
2022/10/08 11:11:34;;;;;;;6.65;3.38;;;;;;;21.66;55.37;93535.50;5111640;28;20040;-72
2022/10/08 11:14:14;;;;;;;9.55;3.40;;;;;;;21.98;55.61;93540.25;5099733;28;20055;-72
2022/10/08 11:16:51;;;;;;;6.82;3.53;;;;;;;22.17;53.34;93534.34;5129440;28;20088;-72
2022/10/08 11:19:35;;;;;;;5.43;2.95;;;;;;;22.40;53.60;93527.63;5124597;28;20040;-71
2022/10/08 11:22:10;;;;;;;8.98;3.42;;;;;;;22.56;53.83;93530.13;5108273;28;20044;-72
2022/10/08 11:24:58;;;;;;;5.82;3.13;;;;;;;22.46;52.20;93530.97;5088612;28;20048;-72
2022/10/08 11:27:37;;;;;;;6.03;3.20;;;;;;;22.00;49.89;93530.28;5097071;28;20102;-72
2022/10/08 11:30:12;;;;;;;5.55;3.20;;;;;;;21.30;51.11;93511.09;5104505;28;20457;-71
2022/10/08 11:32:41;;;;;;;4.57;2.70;;;;;;;20.79;51.91;93509.47;5104321;28;20052;-72
2022/10/08 11:35:23;;;;;;;7.07;2.90;;;;;;;20.80;54.31;93500.59;5130864;27;20540;-71
2022/10/08 11:37:57;;;;;;;5.93;2.83;;;;;;;20.86;53.63;93511.81;5133200;27;20096;-71
2022/10/08 11:40:32;;;;;;;7.07;3.38;;;;;;;21.22;56.83;93504.63;5133062;27;20445;-71
2022/10/08 11:43:07;;;;;;;6.43;2.90;;;;;;;21.18;51.42;93506.22;5133121;27;20095;-72